createdAt,value
2018-09-17T00:01:39.195Z,100201.00
2018-09-17T00:04:09.450Z,100200.00
2018-09-17T00:06:39.880Z,100201.00
2018-09-17T00:09:12.522Z,100191.00
2018-09-17T00:11:42.927Z,100191.00
2018-09-17T00:14:13.375Z,100185.00
2018-09-17T00:16:43.777Z,100183.00
2018-09-17T00:19:14.431Z,100188.00
2018-09-17T00:21:44.564Z,100183.00
2018-09-17T00:24:15.131Z,100192.00
2018-09-17T00:26:47.240Z,100191.00
2018-09-17T00:29:19.411Z,100191.00
2018-09-17T00:31:54.989Z,100193.00
2018-09-17T00:34:25.170Z,100195.00
2018-09-17T00:36:55.706Z,100194.00
2018-09-17T00:39:26.316Z,100203.00
2018-09-17T00:41:56.636Z,100199.00
2018-09-17T00:44:27.728Z,100198.00
2018-09-17T00:46:57.831Z,100194.00
2018-09-17T00:49:29.466Z,100195.00
2018-09-17T00:51:59.828Z,100201.00
2018-09-17T00:54:30.518Z,100187.00
2018-09-17T00:57:02.295Z,100182.00
2018-09-17T00:59:33.575Z,100184.00
2018-09-17T01:02:06.190Z,100185.00
2018-09-17T01:04:36.256Z,100183.00
2018-09-17T01:07:06.638Z,100184.00
2018-09-17T01:09:43.784Z,100174.00
2018-09-17T01:12:15.492Z,100176.00
2018-09-17T01:14:46.370Z,100170.00
2018-09-17T01:17:16.906Z,100160.00
2018-09-17T01:19:47.001Z,100163.00
2018-09-17T01:22:17.156Z,100158.00
2018-09-17T01:24:47.488Z,100169.00
2018-09-17T01:27:17.489Z,100164.00
2018-09-17T01:29:47.559Z,100157.00
2018-09-17T01:32:17.600Z,100155.00
2018-09-17T01:34:48.487Z,100152.00
2018-09-17T01:37:19.184Z,100164.00
2018-09-17T01:39:49.502Z,100160.00
2018-09-17T01:42:20.060Z,100143.00
2018-09-17T01:44:50.946Z,100162.00
2018-09-17T01:47:21.733Z,100159.00
2018-09-17T01:49:51.758Z,100155.00
2018-09-17T01:52:22.172Z,100146.00
2018-09-17T01:54:53.463Z,100150.00
2018-09-17T01:57:23.529Z,100147.00
2018-09-17T01:59:54.213Z,100149.00
2018-09-17T02:02:25.416Z,100155.00
2018-09-17T02:04:55.705Z,100150.00
2018-09-17T02:07:26.266Z,100158.00
2018-09-17T02:09:56.449Z,100151.00
2018-09-17T02:12:26.915Z,100154.00
2018-09-17T02:14:57.506Z,100153.00
2018-09-17T02:17:27.845Z,100147.00
2018-09-17T02:19:57.844Z,100149.00
2018-09-17T02:22:27.807Z,100148.00
2018-09-17T02:25:00.078Z,100148.00
2018-09-17T02:27:33.169Z,100147.00
2018-09-17T02:30:04.985Z,100141.00
2018-09-17T02:32:35.579Z,100154.00
2018-09-17T02:35:05.691Z,100143.00
2018-09-17T02:37:36.032Z,100144.00
2018-09-17T02:40:10.440Z,100138.00
2018-09-17T02:42:40.936Z,100138.00
2018-09-17T02:45:11.564Z,100143.00
2018-09-17T02:47:42.301Z,100138.00
2018-09-17T02:50:12.303Z,100136.00
2018-09-17T02:52:42.523Z,100128.00
2018-09-17T02:55:13.775Z,100118.00
2018-09-17T02:57:44.226Z,100125.00
2018-09-17T03:00:14.424Z,100116.00
2018-09-17T03:02:44.671Z,100114.00
2018-09-17T03:05:16.038Z,100111.00
2018-09-17T03:07:47.546Z,100120.00
2018-09-17T03:10:17.772Z,100114.00
2018-09-17T03:12:47.931Z,100119.00
2018-09-17T03:15:34.491Z,100119.00
2018-09-17T03:18:04.794Z,100114.00
2018-09-17T03:20:34.958Z,100117.00
2018-09-17T03:23:05.191Z,100114.00
2018-09-17T03:25:35.335Z,100117.00
2018-09-17T03:28:05.524Z,100110.00
2018-09-17T03:30:35.704Z,100114.00
2018-09-17T03:33:05.955Z,100114.00
2018-09-17T03:35:35.844Z,100110.00
2018-09-17T03:38:27.332Z,100104.00
2018-09-17T03:40:58.425Z,100111.00
2018-09-17T03:43:32.393Z,100101.00
2018-09-17T03:46:02.504Z,100103.00
2018-09-17T03:48:33.553Z,100104.00
2018-09-17T03:51:05.208Z,100114.00
2018-09-17T03:53:36.941Z,100108.00
2018-09-17T03:56:07.835Z,100105.00
2018-09-17T03:58:38.423Z,100096.00
2018-09-17T04:01:08.873Z,100101.00
2018-09-17T04:03:40.241Z,100097.00
2018-09-17T04:06:10.623Z,100089.00
2018-09-17T04:08:41.275Z,100092.00
2018-09-17T04:11:11.230Z,100094.00
2018-09-17T04:13:41.635Z,100094.00
2018-09-17T04:16:11.960Z,100091.00
2018-09-17T04:18:42.012Z,100082.00
2018-09-17T04:21:13.140Z,100090.00
2018-09-17T04:23:43.397Z,100084.00
2018-09-17T04:26:13.909Z,100082.00
2018-09-17T04:28:44.309Z,100074.00
2018-09-17T04:31:14.533Z,100069.00
2018-09-17T04:33:45.070Z,100074.00
2018-09-17T04:36:15.210Z,100075.00
2018-09-17T04:38:45.501Z,100082.00
2018-09-17T04:41:15.855Z,100076.00
2018-09-17T04:43:46.398Z,100074.00
2018-09-17T04:46:16.606Z,100076.00
2018-09-17T04:48:46.883Z,100075.00
2018-09-17T04:51:17.031Z,100076.00
2018-09-17T04:53:48.249Z,100076.00
2018-09-17T04:56:20.733Z,100061.00
2018-09-17T04:58:50.827Z,100063.00
2018-09-17T05:01:21.545Z,100057.00
2018-09-17T05:03:51.747Z,100052.00
2018-09-17T05:06:22.855Z,100062.00
2018-09-17T05:08:54.075Z,100067.00
2018-09-17T05:11:24.937Z,100061.00
2018-09-17T05:13:55.898Z,100057.00
2018-09-17T05:16:26.381Z,100055.00
2018-09-17T05:18:56.707Z,100063.00
2018-09-17T05:21:27.787Z,100056.00
2018-09-17T05:23:57.863Z,100057.00
2018-09-17T05:26:28.071Z,100058.00
2018-09-17T05:28:58.567Z,100050.00
2018-09-17T05:31:29.502Z,100054.00
2018-09-17T05:33:59.701Z,100051.00
2018-09-17T05:36:30.585Z,100051.00
2018-09-17T05:39:00.782Z,100043.00
2018-09-17T05:41:31.710Z,100039.00
2018-09-17T05:44:02.060Z,100044.00
2018-09-17T05:46:32.334Z,100043.00
2018-09-17T05:49:02.689Z,100047.00
2018-09-17T05:51:32.738Z,100055.00
2018-09-17T05:54:03.515Z,100028.00
2018-09-17T05:56:34.943Z,100035.00
2018-09-17T05:59:05.541Z,100046.00
2018-09-17T06:01:35.872Z,100046.00
2018-09-17T06:04:07.472Z,100043.00
2018-09-17T06:06:37.849Z,100049.00
2018-09-17T06:09:12.702Z,100054.00
2018-09-17T06:11:43.818Z,100051.00
2018-09-17T06:14:13.923Z,100056.00
2018-09-17T06:16:45.088Z,100059.00
2018-09-17T06:19:15.414Z,100050.00
2018-09-17T06:21:46.424Z,100056.00
2018-09-17T06:24:16.694Z,100059.00
2018-09-17T06:26:47.896Z,100057.00
2018-09-17T06:29:19.068Z,100060.00
2018-09-17T06:31:49.283Z,100065.00
2018-09-17T06:34:19.431Z,100064.00
2018-09-17T06:36:49.706Z,100065.00
2018-09-17T06:39:20.111Z,100062.00
2018-09-17T06:41:50.470Z,100061.00
2018-09-17T06:44:21.043Z,100059.00
2018-09-17T06:46:51.220Z,100065.00
2018-09-17T06:49:21.781Z,100051.00
2018-09-17T06:51:51.884Z,100059.00
2018-09-17T06:54:22.223Z,100056.00
2018-09-17T06:56:52.890Z,100059.00
2018-09-17T06:59:22.975Z,100069.00
2018-09-17T07:01:53.345Z,100065.00
2018-09-17T07:04:23.434Z,100061.00
2018-09-17T07:06:53.552Z,100064.00
2018-09-17T07:09:23.887Z,100062.00
2018-09-17T07:11:54.011Z,100068.00
2018-09-17T07:14:25.401Z,100068.00
2018-09-17T07:16:55.737Z,100068.00
2018-09-17T07:19:26.260Z,100058.00
2018-09-17T07:21:57.124Z,100073.00
2018-09-17T07:24:27.388Z,100070.00
2018-09-17T07:26:58.503Z,100066.00
2018-09-17T07:29:28.728Z,100069.00
2018-09-17T07:31:58.792Z,100068.00
2018-09-17T07:34:28.908Z,100079.00
2018-09-17T07:37:00.581Z,100075.00
2018-09-17T07:39:30.888Z,100078.00
2018-09-17T07:42:01.496Z,100080.00
2018-09-17T07:44:31.484Z,100068.00
2018-09-17T07:47:01.980Z,100079.00
2018-09-17T07:49:38.795Z,100062.00
2018-09-17T07:52:09.501Z,100062.00
2018-09-17T07:54:41.053Z,100060.00
2018-09-17T07:57:11.732Z,100057.00
2018-09-17T07:59:41.814Z,100066.00
2018-09-17T08:02:12.340Z,100069.00
2018-09-17T08:04:43.026Z,100063.00
2018-09-17T08:07:13.274Z,100064.00
2018-09-17T08:09:44.103Z,100060.00
2018-09-17T08:12:14.328Z,100061.00
2018-09-17T08:14:44.718Z,100055.00
2018-09-17T08:17:15.011Z,100056.00
2018-09-17T08:19:45.091Z,100063.00
2018-09-17T08:22:16.620Z,100055.00
2018-09-17T08:24:47.591Z,100058.00
2018-09-17T08:27:17.627Z,100056.00
2018-09-17T08:29:48.202Z,100048.00
2018-09-17T08:32:18.546Z,100053.00
2018-09-17T08:34:49.233Z,100050.00
2018-09-17T08:37:19.821Z,100048.00
2018-09-17T08:39:50.559Z,100054.00
2018-09-17T08:42:20.818Z,100038.00
2018-09-17T08:44:51.137Z,100051.00
2018-09-17T08:47:27.786Z,100047.00
2018-09-17T08:49:58.037Z,100049.00
2018-09-17T08:52:29.045Z,100051.00
2018-09-17T08:55:05.382Z,100043.00
2018-09-17T08:57:41.303Z,100045.00
2018-09-17T09:00:17.039Z,100051.00
2018-09-17T09:02:51.957Z,100034.00
2018-09-17T09:05:27.378Z,100033.00
2018-09-17T09:07:57.929Z,100039.00
2018-09-17T09:10:33.062Z,100026.00
2018-09-17T09:13:08.181Z,100027.00
2018-09-17T09:15:40.112Z,100025.00
2018-09-17T09:18:10.806Z,100026.00
2018-09-17T09:20:43.760Z,100023.00
2018-09-17T09:23:13.740Z,100023.00
2018-09-17T09:25:44.224Z,100008.00
2018-09-17T09:28:14.383Z,100007.00
2018-09-17T09:30:46.970Z,100009.00
2018-09-17T09:33:17.865Z,100005.00
2018-09-17T09:35:48.742Z,100007.00
2018-09-17T09:38:18.998Z,99983.00
2018-09-17T09:40:49.788Z,100012.00
2018-09-17T09:43:19.981Z,100006.00
2018-09-17T09:45:50.189Z,100006.00
2018-09-17T09:48:20.568Z,100019.00
2018-09-17T09:50:51.830Z,100010.00
2018-09-17T09:53:22.036Z,100005.00
2018-09-17T09:55:52.896Z,100005.00
2018-09-17T09:58:24.211Z,99999.00
2018-09-17T10:00:59.858Z,99990.00
2018-09-17T10:03:34.518Z,100002.00
2018-09-17T10:06:04.883Z,99994.00
2018-09-17T10:08:39.691Z,99993.00
2018-09-17T10:11:14.987Z,99985.00
2018-09-17T10:13:50.435Z,100001.00
2018-09-17T10:16:21.529Z,99994.00
2018-09-17T10:18:56.955Z,100000.00
2018-09-17T10:21:29.337Z,99987.00
2018-09-17T10:24:00.664Z,99982.00
2018-09-17T10:26:30.984Z,99975.00
2018-09-17T10:29:01.050Z,99969.00
2018-09-17T10:31:32.104Z,99974.00
2018-09-17T10:34:02.012Z,99975.00
2018-09-17T10:36:32.387Z,99974.00
2018-09-17T10:39:02.568Z,99973.00
2018-09-17T10:41:33.463Z,99964.00
2018-09-17T10:44:04.000Z,99968.00
2018-09-17T10:46:34.378Z,99955.00
2018-09-17T10:49:04.666Z,99963.00
2018-09-17T10:51:35.155Z,99960.00
2018-09-17T10:54:05.321Z,99955.00
2018-09-17T10:56:35.619Z,99956.00
2018-09-17T10:59:05.953Z,99960.00
2018-09-17T11:01:35.784Z,99945.00
2018-09-17T11:04:09.641Z,99944.00
2018-09-17T11:06:40.199Z,99946.00
2018-09-17T11:09:12.595Z,99943.00
2018-09-17T11:11:43.179Z,99929.00
2018-09-17T11:14:13.368Z,99936.00
2018-09-17T11:16:43.540Z,99931.00
2018-09-17T11:19:13.796Z,99923.00
2018-09-17T11:21:44.038Z,99928.00
2018-09-17T11:24:14.580Z,99929.00
2018-09-17T11:26:44.840Z,99925.00
2018-09-17T11:29:15.126Z,99927.00
2018-09-17T11:31:45.184Z,99934.00
2018-09-17T11:34:18.314Z,99938.00
2018-09-17T11:36:48.475Z,99943.00
2018-09-17T11:39:19.400Z,99937.00
2018-09-17T11:41:49.586Z,99944.00
2018-09-17T11:44:19.579Z,99942.00
2018-09-17T11:46:50.480Z,99943.00
2018-09-17T11:49:20.844Z,99938.00
2018-09-17T11:51:51.138Z,99926.00
2018-09-17T11:54:21.372Z,99937.00
2018-09-17T11:56:51.643Z,99927.00
2018-09-17T11:59:22.257Z,99922.00
2018-09-17T12:01:57.549Z,99918.00
2018-09-17T12:04:32.081Z,99914.00
2018-09-17T12:07:08.324Z,99905.00
2018-09-17T12:09:39.566Z,99914.00
2018-09-17T12:12:10.717Z,99912.00
2018-09-17T12:14:41.124Z,99912.00
2018-09-17T12:17:12.219Z,99905.00
2018-09-17T12:19:42.521Z,99901.00
2018-09-17T12:22:12.768Z,99901.00
2018-09-17T12:24:43.155Z,99898.00
2018-09-17T12:27:16.253Z,99885.00
2018-09-17T12:29:46.979Z,99883.00
2018-09-17T12:32:17.489Z,99880.00
2018-09-17T12:34:47.393Z,99875.00
2018-09-17T12:37:18.915Z,99871.00
2018-09-17T12:39:49.372Z,99865.00
2018-09-17T12:42:20.751Z,99869.00
2018-09-17T12:44:51.204Z,99868.00
2018-09-17T12:47:22.112Z,99873.00
2018-09-17T12:49:52.520Z,99873.00
2018-09-17T12:52:23.421Z,99863.00
2018-09-17T12:54:53.778Z,99857.00
2018-09-17T12:57:24.822Z,99853.00
2018-09-17T12:59:55.974Z,99858.00
2018-09-17T13:02:26.500Z,99853.00
2018-09-17T13:04:56.587Z,99847.00
2018-09-17T13:07:26.831Z,99844.00
2018-09-17T13:09:57.387Z,99836.00
2018-09-17T13:12:27.824Z,99843.00
2018-09-17T13:14:58.407Z,99845.00
2018-09-17T13:17:28.592Z,99850.00
2018-09-17T13:19:59.690Z,99841.00
2018-09-17T13:22:29.715Z,99841.00
2018-09-17T13:25:00.394Z,99836.00
2018-09-17T13:27:30.506Z,99826.00
2018-09-17T13:30:00.677Z,99830.00
2018-09-17T13:32:30.833Z,99813.00
2018-09-17T13:35:01.161Z,99824.00
2018-09-17T13:37:31.268Z,99813.00
2018-09-17T13:40:01.505Z,99812.00
2018-09-17T13:42:31.825Z,99813.00
2018-09-17T13:45:02.523Z,99809.00
2018-09-17T13:47:33.217Z,99803.00
2018-09-17T13:50:03.421Z,99787.00
2018-09-17T13:52:33.580Z,99801.00
2018-09-17T13:55:04.129Z,99798.00
2018-09-17T13:57:34.978Z,99790.00
2018-09-17T14:00:05.678Z,99789.00
2018-09-17T14:02:35.820Z,99776.00
2018-09-17T14:05:06.236Z,99775.00
2018-09-17T14:07:36.748Z,99772.00
2018-09-17T14:10:07.964Z,99767.00
2018-09-17T14:12:38.068Z,99764.00
2018-09-17T14:15:08.381Z,99770.00
2018-09-17T14:17:38.686Z,99769.00
2018-09-17T14:20:08.798Z,99760.00
2018-09-17T14:22:39.440Z,99761.00
2018-09-17T14:25:10.746Z,99758.00
2018-09-17T14:27:41.218Z,99751.00
2018-09-17T14:30:13.108Z,99741.00
2018-09-17T14:32:48.335Z,99733.00
2018-09-17T14:35:18.721Z,99735.00
2018-09-17T14:37:49.003Z,99704.00
2018-09-17T14:40:19.291Z,99717.00
2018-09-17T14:42:50.232Z,99696.00
2018-09-17T14:45:20.353Z,99681.00
2018-09-17T14:47:50.493Z,99679.00
2018-09-17T14:50:21.134Z,99671.00
2018-09-17T14:52:51.789Z,99672.00
2018-09-17T14:55:22.560Z,99667.00
2018-09-17T14:57:52.689Z,99661.00
2018-09-17T15:00:25.972Z,99657.00
2018-09-17T15:02:56.794Z,99654.00
2018-09-17T15:05:26.965Z,99652.00
2018-09-17T15:07:57.285Z,99640.00
2018-09-17T15:10:27.439Z,99644.00
2018-09-17T15:12:57.985Z,99632.00
2018-09-17T15:15:28.174Z,99625.00
2018-09-17T15:17:58.554Z,99620.00
2018-09-17T15:20:28.850Z,99613.00
2018-09-17T15:22:59.323Z,99611.00
2018-09-17T15:25:29.485Z,99629.00
2018-09-17T15:27:59.833Z,99622.00
2018-09-17T15:30:30.241Z,99627.00
2018-09-17T15:33:00.245Z,99614.00
2018-09-17T15:35:30.676Z,99602.00
2018-09-17T15:38:01.135Z,99607.00
2018-09-17T15:40:31.957Z,99594.00
2018-09-17T15:43:03.745Z,99586.00
2018-09-17T15:45:33.955Z,99584.00
2018-09-17T15:48:04.442Z,99582.00
2018-09-17T15:50:34.836Z,99573.00
2018-09-17T15:53:05.090Z,99575.00
2018-09-17T15:55:35.123Z,99573.00
2018-09-17T15:58:05.505Z,99555.00
2018-09-17T16:00:35.520Z,99560.00
2018-09-17T16:03:05.768Z,99560.00
2018-09-17T16:05:36.095Z,99569.00
2018-09-17T16:08:07.949Z,99553.00
2018-09-17T16:10:38.558Z,99557.00
2018-09-17T16:13:09.042Z,99540.00
2018-09-17T16:15:39.416Z,99541.00
2018-09-17T16:18:10.357Z,99541.00
2018-09-17T16:20:40.573Z,99536.00
2018-09-17T16:23:11.264Z,99539.00
2018-09-17T16:25:43.589Z,99535.00
2018-09-17T16:28:14.799Z,99536.00
2018-09-17T16:30:46.511Z,99531.00
2018-09-17T16:33:18.120Z,99533.00
2018-09-17T16:35:49.207Z,99523.00
2018-09-17T16:38:19.404Z,99535.00
2018-09-17T16:40:49.471Z,99536.00
2018-09-17T16:43:20.035Z,99535.00
2018-09-17T16:45:50.243Z,99528.00
2018-09-17T16:48:20.520Z,99529.00
2018-09-17T16:50:50.791Z,99533.00
2018-09-17T16:53:21.395Z,99522.00
2018-09-17T16:55:52.141Z,99517.00
2018-09-17T16:58:22.846Z,99517.00
2018-09-17T17:00:53.343Z,99520.00
2018-09-17T17:03:23.399Z,99512.00
2018-09-17T17:05:53.790Z,99513.00
2018-09-17T17:08:24.051Z,99517.00
2018-09-17T17:10:54.609Z,99506.00
2018-09-17T17:13:24.628Z,99496.00
2018-09-17T17:15:55.924Z,99500.00
2018-09-17T17:18:30.034Z,99497.00
2018-09-17T17:21:00.289Z,99497.00
2018-09-17T17:23:30.647Z,99500.00
2018-09-17T17:26:00.882Z,99491.00
2018-09-17T17:28:31.260Z,99501.00
2018-09-17T17:31:03.448Z,99498.00
2018-09-17T17:33:33.784Z,99496.00
2018-09-17T17:36:03.896Z,99493.00
2018-09-17T17:38:34.682Z,99502.00
2018-09-17T17:41:05.583Z,99486.00
2018-09-17T17:43:36.796Z,99493.00
2018-09-17T17:46:08.762Z,99502.00
2018-09-17T17:48:38.853Z,99497.00
2018-09-17T17:51:09.299Z,99500.00
2018-09-17T17:53:40.393Z,99497.00
2018-09-17T17:56:11.213Z,99499.00
2018-09-17T17:58:41.409Z,99499.00
2018-09-17T18:01:12.205Z,99498.00
2018-09-17T18:03:42.786Z,99491.00
2018-09-17T18:06:14.409Z,99489.00
2018-09-17T18:08:44.653Z,99480.00
2018-09-17T18:11:14.960Z,99487.00
2018-09-17T18:13:45.211Z,99488.00
2018-09-17T18:16:15.211Z,99476.00
2018-09-17T18:18:46.068Z,99485.00
2018-09-17T18:21:16.369Z,99471.00
2018-09-17T18:23:48.381Z,99473.00
2018-09-17T18:26:18.850Z,99479.00
2018-09-17T18:28:50.078Z,99477.00
2018-09-17T18:31:20.989Z,99477.00
2018-09-17T18:33:51.872Z,99478.00
2018-09-17T18:36:23.608Z,99474.00
2018-09-17T18:38:54.034Z,99468.00
2018-09-17T18:41:24.231Z,99469.00
2018-09-17T18:43:54.732Z,99466.00
2018-09-17T18:46:26.695Z,99468.00
2018-09-17T18:48:57.767Z,99459.00
2018-09-17T18:51:27.706Z,99451.00
2018-09-17T18:53:58.639Z,99451.00
2018-09-17T18:56:28.816Z,99456.00
2018-09-17T18:58:59.120Z,99456.00
2018-09-17T19:01:29.012Z,99464.00
2018-09-17T19:03:59.459Z,99447.00
2018-09-17T19:06:29.799Z,99443.00
2018-09-17T19:09:00.104Z,99451.00
2018-09-17T19:11:30.823Z,99443.00
2018-09-17T19:14:06.246Z,99437.00
2018-09-17T19:16:55.959Z,99434.00
2018-09-17T19:19:27.018Z,99434.00
2018-09-17T19:22:03.810Z,99431.00
2018-09-17T19:24:33.941Z,99440.00
2018-09-17T19:27:04.966Z,99433.00
2018-09-17T19:29:35.175Z,99425.00
2018-09-17T19:32:06.965Z,99437.00
2018-09-17T19:34:37.815Z,99435.00
2018-09-17T19:37:13.352Z,99430.00
2018-09-17T19:39:49.205Z,99433.00
2018-09-17T19:42:21.085Z,99444.00
2018-09-17T19:44:56.339Z,99432.00
2018-09-17T19:47:26.791Z,99428.00
2018-09-17T19:49:57.103Z,99421.00
2018-09-17T19:52:28.705Z,99435.00
2018-09-17T19:55:00.469Z,99423.00
2018-09-17T19:57:35.810Z,99420.00
2018-09-17T20:00:08.713Z,99407.00
2018-09-17T20:02:39.650Z,99409.00
2018-09-17T20:05:14.783Z,99409.00
2018-09-17T20:07:45.951Z,99400.00
2018-09-17T20:10:16.063Z,99395.00
2018-09-17T20:12:46.583Z,99398.00
2018-09-17T20:15:16.840Z,99402.00
2018-09-17T20:17:47.331Z,99386.00
2018-09-17T20:20:17.716Z,99387.00
2018-09-17T20:22:49.386Z,99389.00
2018-09-17T20:25:21.020Z,99380.00
2018-09-17T20:27:53.302Z,99376.00
2018-09-17T20:30:23.460Z,99385.00
2018-09-17T20:32:57.673Z,99365.00
2018-09-17T20:35:28.665Z,99369.00
2018-09-17T20:37:58.923Z,99360.00
2018-09-17T20:40:29.083Z,99372.00
2018-09-17T20:42:59.392Z,99362.00
2018-09-17T20:45:29.560Z,99363.00
2018-09-17T20:48:01.440Z,99356.00
2018-09-17T20:50:31.593Z,99357.00
2018-09-17T20:53:01.708Z,99356.00
2018-09-17T20:55:31.985Z,99348.00
2018-09-17T20:58:02.583Z,99359.00
2018-09-17T21:00:32.804Z,99339.00
2018-09-17T21:03:05.038Z,99337.00
2018-09-17T21:05:35.640Z,99328.00
2018-09-17T21:08:07.276Z,99328.00
2018-09-17T21:10:38.788Z,99324.00
2018-09-17T21:13:09.832Z,99321.00
2018-09-17T21:15:41.271Z,99305.00
2018-09-17T21:18:13.254Z,99306.00
2018-09-17T21:20:43.607Z,99310.00
2018-09-17T21:23:13.463Z,99291.00
2018-09-17T21:25:43.978Z,99279.00
2018-09-17T21:28:15.297Z,99282.00
2018-09-17T21:30:46.609Z,99291.00
2018-09-17T21:33:18.041Z,99288.00
2018-09-17T21:35:49.147Z,99286.00
2018-09-17T21:38:19.683Z,99278.00
2018-09-17T21:40:51.709Z,99281.00
2018-09-17T21:43:23.629Z,99272.00
2018-09-17T21:45:53.805Z,99272.00
2018-09-17T21:48:24.217Z,99259.00
2018-09-17T21:50:54.301Z,99253.00
2018-09-17T21:53:24.825Z,99256.00
2018-09-17T21:55:55.805Z,99256.00
2018-09-17T21:58:25.854Z,99252.00
2018-09-17T22:01:01.869Z,99246.00
2018-09-17T22:03:33.958Z,99254.00
2018-09-17T22:06:04.905Z,99238.00
2018-09-17T22:08:40.964Z,99231.00
2018-09-17T22:11:11.333Z,99231.00
2018-09-17T22:13:41.637Z,99225.00
2018-09-17T22:16:12.595Z,99218.00
2018-09-17T22:18:43.779Z,99217.00
2018-09-17T22:21:16.451Z,99212.00
2018-09-17T22:23:47.100Z,99206.00
2018-09-17T22:26:17.525Z,99201.00
2018-09-17T22:28:47.764Z,99192.00
2018-09-17T22:31:19.213Z,99184.00
2018-09-17T22:33:49.836Z,99182.00
2018-09-17T22:36:20.799Z,99185.00
2018-09-17T22:38:51.088Z,99187.00
2018-09-17T22:41:21.924Z,99173.00
2018-09-17T22:43:52.000Z,99163.00
2018-09-17T22:46:23.557Z,99168.00
2018-09-17T22:48:54.557Z,99158.00
2018-09-17T22:51:24.915Z,99152.00
2018-09-17T22:53:55.221Z,99162.00
2018-09-17T22:56:25.669Z,99157.00
2018-09-17T22:58:55.931Z,99148.00
2018-09-17T23:01:25.948Z,99148.00
2018-09-17T23:03:56.984Z,99150.00
2018-09-17T23:06:28.181Z,99141.00
2018-09-17T23:08:58.836Z,99131.00
2018-09-17T23:11:29.601Z,99134.00
2018-09-17T23:13:59.971Z,99125.00
2018-09-17T23:16:32.487Z,99124.00
2018-09-17T23:19:02.655Z,99120.00
2018-09-17T23:21:32.698Z,99114.00
2018-09-17T23:24:03.250Z,99101.00
2018-09-17T23:26:33.767Z,99094.00
2018-09-17T23:29:04.637Z,99089.00
2018-09-17T23:31:36.084Z,99093.00
2018-09-17T23:34:06.714Z,99092.00
2018-09-17T23:36:37.203Z,99087.00
2018-09-17T23:39:12.262Z,99089.00
2018-09-17T23:41:44.382Z,99083.00
2018-09-17T23:44:14.807Z,99080.00
2018-09-17T23:46:46.690Z,99080.00
2018-09-17T23:49:17.889Z,99077.00
2018-09-17T23:51:51.986Z,99059.00
2018-09-17T23:54:25.435Z,99060.00
2018-09-17T23:56:56.379Z,99065.00
2018-09-17T23:59:26.949Z,99056.00
